sensor_id;sensor_type;location;lat;lon;timestamp;P1;durP1;ratioP1;P2;durP2;ratioP2
40717;SDS011;26405;51.850;-2.246;2024-03-29T00:01:20;8.70;;;2.20;;
40717;SDS011;26405;51.850;-2.246;2024-03-29T00:03:45;8.48;;;2.22;;
40717;SDS011;26405;51.850;-2.246;2024-03-29T00:06:10;8.82;;;2.42;;
40717;SDS011;26405;51.850;-2.246;2024-03-29T00:08:37;8.10;;;2.30;;
40717;SDS011;26405;51.850;-2.246;2024-03-29T00:11:02;9.23;;;2.60;;
40717;SDS011;26405;51.850;-2.246;2024-03-29T00:13:28;9.57;;;2.30;;
40717;SDS011;26405;51.850;-2.246;2024-03-29T00:15:53;7.90;;;2.15;;
40717;SDS011;26405;51.850;-2.246;2024-03-29T00:18:18;6.78;;;2.10;;
40717;SDS011;26405;51.850;-2.246;2024-03-29T00:20:44;9.60;;;2.40;;
40717;SDS011;26405;51.850;-2.246;2024-03-29T00:23:09;10.18;;;2.50;;
40717;SDS011;26405;51.850;-2.246;2024-03-29T00:25:34;11.27;;;2.30;;
40717;SDS011;26405;51.850;-2.246;2024-03-29T00:27:59;12.20;;;2.53;;
40717;SDS011;26405;51.850;-2.246;2024-03-29T00:30:26;9.33;;;2.30;;
40717;SDS011;26405;51.850;-2.246;2024-03-29T00:32:51;8.15;;;2.30;;
40717;SDS011;26405;51.850;-2.246;2024-03-29T00:35:16;6.40;;;2.00;;
40717;SDS011;26405;51.850;-2.246;2024-03-29T00:37:42;9.38;;;2.40;;
40717;SDS011;26405;51.850;-2.246;2024-03-29T00:40:08;6.45;;;2.15;;
40717;SDS011;26405;51.850;-2.246;2024-03-29T00:42:35;7.78;;;2.30;;
40717;SDS011;26405;51.850;-2.246;2024-03-29T00:45:00;7.60;;;2.30;;
40717;SDS011;26405;51.850;-2.246;2024-03-29T00:47:25;9.10;;;2.28;;
40717;SDS011;26405;51.850;-2.246;2024-03-29T00:49:51;12.32;;;2.15;;
40717;SDS011;26405;51.850;-2.246;2024-03-29T00:52:16;12.07;;;2.35;;
40717;SDS011;26405;51.850;-2.246;2024-03-29T00:54:41;9.13;;;1.90;;
40717;SDS011;26405;51.850;-2.246;2024-03-29T00:57:06;10.65;;;2.42;;
40717;SDS011;26405;51.850;-2.246;2024-03-29T00:59:37;7.28;;;2.15;;
40717;SDS011;26405;51.850;-2.246;2024-03-29T01:02:02;5.22;;;1.80;;
40717;SDS011;26405;51.850;-2.246;2024-03-29T01:04:28;10.25;;;2.55;;
40717;SDS011;26405;51.850;-2.246;2024-03-29T01:06:53;7.55;;;2.08;;
40717;SDS011;26405;51.850;-2.246;2024-03-29T01:09:20;10.43;;;2.30;;
40717;SDS011;26405;51.850;-2.246;2024-03-29T01:11:46;8.48;;;2.15;;
40717;SDS011;26405;51.850;-2.246;2024-03-29T01:14:11;7.32;;;2.00;;
40717;SDS011;26405;51.850;-2.246;2024-03-29T01:16:36;5.88;;;2.05;;
40717;SDS011;26405;51.850;-2.246;2024-03-29T01:19:01;5.68;;;1.88;;
40717;SDS011;26405;51.850;-2.246;2024-03-29T01:21:28;8.20;;;2.10;;
40717;SDS011;26405;51.850;-2.246;2024-03-29T01:23:53;6.25;;;1.90;;
40717;SDS011;26405;51.850;-2.246;2024-03-29T01:26:18;3.80;;;1.92;;
40717;SDS011;26405;51.850;-2.246;2024-03-29T01:28:44;8.88;;;2.25;;
40717;SDS011;26405;51.850;-2.246;2024-03-29T01:31:09;7.35;;;1.92;;
40717;SDS011;26405;51.850;-2.246;2024-03-29T01:33:35;7.72;;;2.40;;
40717;SDS011;26405;51.850;-2.246;2024-03-29T01:36:05;6.03;;;2.10;;
40717;SDS011;26405;51.850;-2.246;2024-03-29T01:38:31;9.30;;;2.47;;
40717;SDS011;26405;51.850;-2.246;2024-03-29T01:40:56;5.65;;;2.10;;
40717;SDS011;26405;51.850;-2.246;2024-03-29T01:43:22;7.15;;;2.58;;
40717;SDS011;26405;51.850;-2.246;2024-03-29T01:45:48;6.00;;;2.45;;
40717;SDS011;26405;51.850;-2.246;2024-03-29T01:48:14;10.73;;;3.20;;
40717;SDS011;26405;51.850;-2.246;2024-03-29T01:50:40;8.23;;;2.58;;
40717;SDS011;26405;51.850;-2.246;2024-03-29T01:53:05;5.15;;;1.98;;
40717;SDS011;26405;51.850;-2.246;2024-03-29T01:55:32;6.47;;;2.10;;
40717;SDS011;26405;51.850;-2.246;2024-03-29T01:57:58;9.20;;;2.22;;
40717;SDS011;26405;51.850;-2.246;2024-03-29T02:00:23;8.57;;;2.00;;
40717;SDS011;26405;51.850;-2.246;2024-03-29T02:02:49;9.52;;;2.10;;
40717;SDS011;26405;51.850;-2.246;2024-03-29T02:05:14;10.73;;;2.25;;
40717;SDS011;26405;51.850;-2.246;2024-03-29T02:07:39;6.78;;;2.40;;
40717;SDS011;26405;51.850;-2.246;2024-03-29T02:10:05;5.00;;;1.77;;
40717;SDS011;26405;51.850;-2.246;2024-03-29T02:12:33;10.27;;;2.00;;
40717;SDS011;26405;51.850;-2.246;2024-03-29T02:14:58;6.10;;;1.80;;
40717;SDS011;26405;51.850;-2.246;2024-03-29T02:17:24;7.07;;;2.20;;
40717;SDS011;26405;51.850;-2.246;2024-03-29T02:19:50;8.20;;;1.95;;
40717;SDS011;26405;51.850;-2.246;2024-03-29T02:22:15;12.57;;;2.22;;
40717;SDS011;26405;51.850;-2.246;2024-03-29T02:24:42;5.25;;;1.98;;
40717;SDS011;26405;51.850;-2.246;2024-03-29T02:27:08;10.52;;;2.60;;
40717;SDS011;26405;51.850;-2.246;2024-03-29T02:29:35;11.25;;;2.40;;
40717;SDS011;26405;51.850;-2.246;2024-03-29T02:32:02;12.90;;;2.30;;
40717;SDS011;26405;51.850;-2.246;2024-03-29T02:36:53;11.00;;;2.60;;
40717;SDS011;26405;51.850;-2.246;2024-03-29T02:39:18;9.60;;;2.33;;
40717;SDS011;26405;51.850;-2.246;2024-03-29T02:41:44;10.35;;;2.85;;
40717;SDS011;26405;51.850;-2.246;2024-03-29T02:44:09;6.47;;;2.30;;
40717;SDS011;26405;51.850;-2.246;2024-03-29T02:46:35;9.77;;;2.33;;
40717;SDS011;26405;51.850;-2.246;2024-03-29T02:49:01;8.95;;;2.50;;
40717;SDS011;26405;51.850;-2.246;2024-03-29T02:51:26;12.13;;;2.72;;
40717;SDS011;26405;51.850;-2.246;2024-03-29T02:53:51;9.77;;;2.78;;
40717;SDS011;26405;51.850;-2.246;2024-03-29T02:56:16;9.27;;;2.50;;
40717;SDS011;26405;51.850;-2.246;2024-03-29T02:58:46;11.02;;;2.70;;
40717;SDS011;26405;51.850;-2.246;2024-03-29T03:01:11;10.60;;;2.35;;
40717;SDS011;26405;51.850;-2.246;2024-03-29T03:03:36;10.05;;;1.90;;
40717;SDS011;26405;51.850;-2.246;2024-03-29T03:06:02;7.55;;;2.28;;
40717;SDS011;26405;51.850;-2.246;2024-03-29T03:08:30;11.70;;;2.38;;
40717;SDS011;26405;51.850;-2.246;2024-03-29T03:11:14;4.93;;;2.15;;
40717;SDS011;26405;51.850;-2.246;2024-03-29T03:13:39;8.32;;;2.03;;
40717;SDS011;26405;51.850;-2.246;2024-03-29T03:16:05;10.98;;;2.22;;
40717;SDS011;26405;51.850;-2.246;2024-03-29T03:18:30;7.53;;;2.15;;
40717;SDS011;26405;51.850;-2.246;2024-03-29T03:20:56;9.27;;;2.50;;
40717;SDS011;26405;51.850;-2.246;2024-03-29T03:23:23;8.60;;;2.22;;
40717;SDS011;26405;51.850;-2.246;2024-03-29T03:25:54;9.43;;;2.25;;
40717;SDS011;26405;51.850;-2.246;2024-03-29T03:28:20;11.40;;;2.33;;
40717;SDS011;26405;51.850;-2.246;2024-03-29T03:30:45;7.85;;;2.13;;
40717;SDS011;26405;51.850;-2.246;2024-03-29T03:33:11;9.70;;;2.30;;
40717;SDS011;26405;51.850;-2.246;2024-03-29T03:35:36;7.13;;;2.17;;
40717;SDS011;26405;51.850;-2.246;2024-03-29T03:38:01;6.72;;;2.00;;
40717;SDS011;26405;51.850;-2.246;2024-03-29T03:40:27;10.27;;;2.42;;
40717;SDS011;26405;51.850;-2.246;2024-03-29T03:42:52;10.27;;;2.47;;
40717;SDS011;26405;51.850;-2.246;2024-03-29T03:45:17;8.50;;;2.30;;
40717;SDS011;26405;51.850;-2.246;2024-03-29T03:47:42;10.40;;;2.47;;
40717;SDS011;26405;51.850;-2.246;2024-03-29T03:50:08;9.93;;;2.50;;
40717;SDS011;26405;51.850;-2.246;2024-03-29T03:52:33;11.65;;;2.42;;
40717;SDS011;26405;51.850;-2.246;2024-03-29T03:54:58;9.35;;;2.30;;
40717;SDS011;26405;51.850;-2.246;2024-03-29T03:57:24;7.55;;;2.17;;
40717;SDS011;26405;51.850;-2.246;2024-03-29T03:59:49;7.07;;;2.22;;
40717;SDS011;26405;51.850;-2.246;2024-03-29T04:02:15;12.30;;;2.70;;
40717;SDS011;26405;51.850;-2.246;2024-03-29T04:04:40;11.23;;;2.40;;
40717;SDS011;26405;51.850;-2.246;2024-03-29T04:07:05;6.68;;;2.10;;
40717;SDS011;26405;51.850;-2.246;2024-03-29T04:09:31;5.05;;;2.00;;
40717;SDS011;26405;51.850;-2.246;2024-03-29T04:11:56;7.53;;;2.03;;
40717;SDS011;26405;51.850;-2.246;2024-03-29T04:14:21;9.30;;;2.38;;
40717;SDS011;26405;51.850;-2.246;2024-03-29T04:16:47;7.47;;;1.75;;
40717;SDS011;26405;51.850;-2.246;2024-03-29T04:19:12;9.82;;;2.20;;
40717;SDS011;26405;51.850;-2.246;2024-03-29T04:21:38;6.35;;;2.05;;
40717;SDS011;26405;51.850;-2.246;2024-03-29T04:24:03;11.38;;;2.13;;
40717;SDS011;26405;51.850;-2.246;2024-03-29T04:26:28;8.05;;;2.20;;
40717;SDS011;26405;51.850;-2.246;2024-03-29T04:28:54;7.38;;;1.95;;
40717;SDS011;26405;51.850;-2.246;2024-03-29T04:31:19;11.20;;;2.42;;
40717;SDS011;26405;51.850;-2.246;2024-03-29T04:33:44;8.30;;;2.10;;
40717;SDS011;26405;51.850;-2.246;2024-03-29T04:36:09;5.25;;;2.10;;
40717;SDS011;26405;51.850;-2.246;2024-03-29T04:38:35;8.20;;;2.05;;
40717;SDS011;26405;51.850;-2.246;2024-03-29T04:41:00;8.23;;;2.20;;
40717;SDS011;26405;51.850;-2.246;2024-03-29T04:43:26;8.55;;;1.80;;
40717;SDS011;26405;51.850;-2.246;2024-03-29T04:46:02;8.00;;;2.30;;
40717;SDS011;26405;51.850;-2.246;2024-03-29T04:50:54;9.93;;;1.92;;
40717;SDS011;26405;51.850;-2.246;2024-03-29T04:53:19;7.68;;;2.05;;
40717;SDS011;26405;51.850;-2.246;2024-03-29T04:55:45;9.88;;;2.25;;
40717;SDS011;26405;51.850;-2.246;2024-03-29T04:58:12;8.35;;;1.92;;
40717;SDS011;26405;51.850;-2.246;2024-03-29T05:00:38;6.72;;;1.85;;
40717;SDS011;26405;51.850;-2.246;2024-03-29T05:03:03;9.70;;;1.90;;
40717;SDS011;26405;51.850;-2.246;2024-03-29T05:05:29;6.88;;;2.17;;
40717;SDS011;26405;51.850;-2.246;2024-03-29T05:07:54;5.82;;;1.83;;
40717;SDS011;26405;51.850;-2.246;2024-03-29T05:10:19;7.57;;;1.90;;
40717;SDS011;26405;51.850;-2.246;2024-03-29T05:12:47;6.15;;;2.00;;
40717;SDS011;26405;51.850;-2.246;2024-03-29T05:15:13;5.10;;;1.75;;
40717;SDS011;26405;51.850;-2.246;2024-03-29T05:17:40;6.78;;;1.83;;
40717;SDS011;26405;51.850;-2.246;2024-03-29T05:20:06;10.45;;;2.45;;
40717;SDS011;26405;51.850;-2.246;2024-03-29T05:22:32;7.30;;;2.00;;
40717;SDS011;26405;51.850;-2.246;2024-03-29T05:24:57;4.68;;;1.85;;
40717;SDS011;26405;51.850;-2.246;2024-03-29T05:27:23;7.20;;;1.90;;
40717;SDS011;26405;51.850;-2.246;2024-03-29T05:29:48;4.93;;;1.80;;
40717;SDS011;26405;51.850;-2.246;2024-03-29T05:32:13;5.03;;;2.10;;
40717;SDS011;26405;51.850;-2.246;2024-03-29T05:34:38;6.47;;;2.00;;
40717;SDS011;26405;51.850;-2.246;2024-03-29T05:37:04;6.30;;;1.98;;
40717;SDS011;26405;51.850;-2.246;2024-03-29T05:39:30;5.07;;;1.60;;
40717;SDS011;26405;51.850;-2.246;2024-03-29T05:41:55;6.50;;;1.83;;
40717;SDS011;26405;51.850;-2.246;2024-03-29T05:44:20;7.65;;;2.03;;
40717;SDS011;26405;51.850;-2.246;2024-03-29T05:46:46;6.93;;;1.95;;
40717;SDS011;26405;51.850;-2.246;2024-03-29T05:49:11;5.63;;;1.77;;
40717;SDS011;26405;51.850;-2.246;2024-03-29T05:51:36;7.35;;;1.95;;
40717;SDS011;26405;51.850;-2.246;2024-03-29T05:54:02;5.15;;;1.90;;
40717;SDS011;26405;51.850;-2.246;2024-03-29T05:56:31;6.25;;;2.10;;
40717;SDS011;26405;51.850;-2.246;2024-03-29T05:58:56;9.10;;;2.30;;
40717;SDS011;26405;51.850;-2.246;2024-03-29T06:01:21;8.57;;;2.35;;
40717;SDS011;26405;51.850;-2.246;2024-03-29T06:03:48;10.48;;;2.28;;
40717;SDS011;26405;51.850;-2.246;2024-03-29T06:06:13;8.30;;;2.22;;
40717;SDS011;26405;51.850;-2.246;2024-03-29T06:08:42;9.82;;;2.33;;
40717;SDS011;26405;51.850;-2.246;2024-03-29T06:11:08;12.15;;;2.80;;
40717;SDS011;26405;51.850;-2.246;2024-03-29T06:13:33;14.40;;;3.33;;
40717;SDS011;26405;51.850;-2.246;2024-03-29T06:16:17;14.02;;;3.10;;
40717;SDS011;26405;51.850;-2.246;2024-03-29T06:19:01;13.80;;;3.00;;
40717;SDS011;26405;51.850;-2.246;2024-03-29T06:21:27;9.80;;;3.00;;
40717;SDS011;26405;51.850;-2.246;2024-03-29T06:23:52;14.30;;;2.95;;
40717;SDS011;26405;51.850;-2.246;2024-03-29T06:26:17;12.63;;;3.22;;
40717;SDS011;26405;51.850;-2.246;2024-03-29T06:28:43;12.05;;;2.75;;
40717;SDS011;26405;51.850;-2.246;2024-03-29T06:31:08;11.23;;;2.72;;
40717;SDS011;26405;51.850;-2.246;2024-03-29T06:33:33;10.63;;;2.88;;
40717;SDS011;26405;51.850;-2.246;2024-03-29T06:35:58;13.27;;;3.00;;
40717;SDS011;26405;51.850;-2.246;2024-03-29T06:38:24;11.73;;;3.28;;
40717;SDS011;26405;51.850;-2.246;2024-03-29T06:40:49;14.65;;;2.90;;
40717;SDS011;26405;51.850;-2.246;2024-03-29T06:43:14;13.05;;;3.15;;
40717;SDS011;26405;51.850;-2.246;2024-03-29T06:45:40;13.45;;;2.92;;
40717;SDS011;26405;51.850;-2.246;2024-03-29T06:48:07;11.35;;;2.80;;
40717;SDS011;26405;51.850;-2.246;2024-03-29T06:50:33;16.05;;;2.90;;
40717;SDS011;26405;51.850;-2.246;2024-03-29T06:52:58;13.98;;;2.78;;
40717;SDS011;26405;51.850;-2.246;2024-03-29T06:55:23;8.90;;;2.53;;
40717;SDS011;26405;51.850;-2.246;2024-03-29T06:57:48;12.10;;;3.10;;
40717;SDS011;26405;51.850;-2.246;2024-03-29T07:00:14;7.60;;;2.47;;
40717;SDS011;26405;51.850;-2.246;2024-03-29T07:02:39;9.90;;;2.47;;
40717;SDS011;26405;51.850;-2.246;2024-03-29T07:05:04;9.35;;;2.47;;
40717;SDS011;26405;51.850;-2.246;2024-03-29T07:07:32;12.35;;;2.75;;
40717;SDS011;26405;51.850;-2.246;2024-03-29T07:09:58;10.30;;;2.42;;
40717;SDS011;26405;51.850;-2.246;2024-03-29T07:12:23;14.15;;;2.85;;
40717;SDS011;26405;51.850;-2.246;2024-03-29T07:14:48;10.20;;;2.42;;
40717;SDS011;26405;51.850;-2.246;2024-03-29T07:17:13;9.90;;;2.78;;
40717;SDS011;26405;51.850;-2.246;2024-03-29T07:19:39;12.80;;;2.88;;
40717;SDS011;26405;51.850;-2.246;2024-03-29T07:22:04;14.18;;;2.97;;
40717;SDS011;26405;51.850;-2.246;2024-03-29T07:24:29;13.65;;;2.67;;
40717;SDS011;26405;51.850;-2.246;2024-03-29T07:26:55;8.55;;;2.40;;
40717;SDS011;26405;51.850;-2.246;2024-03-29T07:29:20;12.88;;;3.50;;
40717;SDS011;26405;51.850;-2.246;2024-03-29T07:31:46;10.75;;;2.70;;
40717;SDS011;26405;51.850;-2.246;2024-03-29T07:34:11;14.75;;;3.40;;
40717;SDS011;26405;51.850;-2.246;2024-03-29T07:36:36;12.38;;;2.80;;
40717;SDS011;26405;51.850;-2.246;2024-03-29T07:39:02;13.75;;;2.97;;
40717;SDS011;26405;51.850;-2.246;2024-03-29T07:41:29;7.32;;;2.30;;
40717;SDS011;26405;51.850;-2.246;2024-03-29T07:43:57;10.43;;;2.60;;
40717;SDS011;26405;51.850;-2.246;2024-03-29T07:46:28;12.88;;;2.97;;
40717;SDS011;26405;51.850;-2.246;2024-03-29T07:48:54;10.25;;;2.65;;
40717;SDS011;26405;51.850;-2.246;2024-03-29T07:51:19;11.57;;;2.92;;
40717;SDS011;26405;51.850;-2.246;2024-03-29T07:53:45;13.10;;;3.10;;
40717;SDS011;26405;51.850;-2.246;2024-03-29T07:56:10;12.23;;;2.88;;
40717;SDS011;26405;51.850;-2.246;2024-03-29T07:58:35;15.52;;;3.80;;
40717;SDS011;26405;51.850;-2.246;2024-03-29T08:01:00;11.18;;;2.85;;
40717;SDS011;26405;51.850;-2.246;2024-03-29T08:03:26;13.68;;;3.53;;
40717;SDS011;26405;51.850;-2.246;2024-03-29T08:06:00;6.57;;;2.40;;
40717;SDS011;26405;51.850;-2.246;2024-03-29T08:08:32;8.75;;;2.78;;
40717;SDS011;26405;51.850;-2.246;2024-03-29T08:10:57;8.80;;;2.72;;
40717;SDS011;26405;51.850;-2.246;2024-03-29T08:13:24;9.85;;;2.85;;
40717;SDS011;26405;51.850;-2.246;2024-03-29T08:15:55;8.80;;;2.70;;
40717;SDS011;26405;51.850;-2.246;2024-03-29T08:18:21;13.85;;;2.70;;
40717;SDS011;26405;51.850;-2.246;2024-03-29T08:20:46;9.80;;;2.63;;
40717;SDS011;26405;51.850;-2.246;2024-03-29T08:23:11;8.02;;;2.35;;
40717;SDS011;26405;51.850;-2.246;2024-03-29T08:25:37;10.57;;;2.70;;
40717;SDS011;26405;51.850;-2.246;2024-03-29T08:28:03;9.07;;;2.75;;
40717;SDS011;26405;51.850;-2.246;2024-03-29T08:30:28;10.50;;;2.97;;
40717;SDS011;26405;51.850;-2.246;2024-03-29T08:33:00;9.15;;;2.60;;
40717;SDS011;26405;51.850;-2.246;2024-03-29T08:35:27;9.27;;;2.45;;
40717;SDS011;26405;51.850;-2.246;2024-03-29T08:37:52;9.35;;;2.50;;
40717;SDS011;26405;51.850;-2.246;2024-03-29T08:40:17;10.85;;;2.58;;
40717;SDS011;26405;51.850;-2.246;2024-03-29T08:42:43;10.93;;;2.85;;
40717;SDS011;26405;51.850;-2.246;2024-03-29T08:45:09;7.60;;;2.15;;
40717;SDS011;26405;51.850;-2.246;2024-03-29T08:47:35;9.18;;;2.65;;
40717;SDS011;26405;51.850;-2.246;2024-03-29T08:50:00;9.27;;;2.72;;
40717;SDS011;26405;51.850;-2.246;2024-03-29T08:52:25;10.57;;;2.75;;
40717;SDS011;26405;51.850;-2.246;2024-03-29T08:54:51;11.27;;;2.72;;
40717;SDS011;26405;51.850;-2.246;2024-03-29T08:57:16;10.57;;;2.30;;
40717;SDS011;26405;51.850;-2.246;2024-03-29T08:59:42;8.52;;;2.30;;
40717;SDS011;26405;51.850;-2.246;2024-03-29T09:02:07;11.73;;;2.45;;
40717;SDS011;26405;51.850;-2.246;2024-03-29T09:04:33;7.72;;;2.30;;
40717;SDS011;26405;51.850;-2.246;2024-03-29T09:07:01;11.40;;;2.58;;
40717;SDS011;26405;51.850;-2.246;2024-03-29T09:09:30;10.00;;;2.53;;
40717;SDS011;26405;51.850;-2.246;2024-03-29T09:11:56;6.18;;;2.45;;
40717;SDS011;26405;51.850;-2.246;2024-03-29T09:14:22;8.25;;;2.70;;
40717;SDS011;26405;51.850;-2.246;2024-03-29T09:16:48;9.55;;;2.50;;
40717;SDS011;26405;51.850;-2.246;2024-03-29T09:19:14;8.52;;;2.35;;
40717;SDS011;26405;51.850;-2.246;2024-03-29T09:21:39;12.35;;;2.60;;
40717;SDS011;26405;51.850;-2.246;2024-03-29T09:24:04;8.82;;;2.75;;
40717;SDS011;26405;51.850;-2.246;2024-03-29T09:26:30;10.05;;;2.80;;
40717;SDS011;26405;51.850;-2.246;2024-03-29T09:28:56;11.75;;;3.08;;
40717;SDS011;26405;51.850;-2.246;2024-03-29T09:31:21;10.48;;;2.60;;
40717;SDS011;26405;51.850;-2.246;2024-03-29T09:33:46;11.82;;;2.58;;
40717;SDS011;26405;51.850;-2.246;2024-03-29T09:36:15;12.85;;;2.50;;
40717;SDS011;26405;51.850;-2.246;2024-03-29T09:38:41;8.35;;;2.33;;
40717;SDS011;26405;51.850;-2.246;2024-03-29T09:41:15;10.35;;;3.00;;
40717;SDS011;26405;51.850;-2.246;2024-03-29T09:43:44;10.15;;;2.60;;
40717;SDS011;26405;51.850;-2.246;2024-03-29T09:46:10;9.45;;;2.40;;
40717;SDS011;26405;51.850;-2.246;2024-03-29T09:48:37;10.40;;;2.05;;
40717;SDS011;26405;51.850;-2.246;2024-03-29T09:51:06;12.05;;;2.22;;
40717;SDS011;26405;51.850;-2.246;2024-03-29T09:53:36;9.70;;;2.10;;
40717;SDS011;26405;51.850;-2.246;2024-03-29T09:56:05;11.85;;;2.40;;
40717;SDS011;26405;51.850;-2.246;2024-03-29T09:58:31;7.97;;;2.53;;
40717;SDS011;26405;51.850;-2.246;2024-03-29T10:00:56;8.85;;;2.15;;
40717;SDS011;26405;51.850;-2.246;2024-03-29T10:03:23;7.90;;;2.47;;
40717;SDS011;26405;51.850;-2.246;2024-03-29T10:05:53;9.25;;;2.47;;
40717;SDS011;26405;51.850;-2.246;2024-03-29T10:08:20;10.53;;;2.60;;
40717;SDS011;26405;51.850;-2.246;2024-03-29T10:10:45;10.20;;;2.40;;
40717;SDS011;26405;51.850;-2.246;2024-03-29T10:13:11;11.02;;;2.75;;
40717;SDS011;26405;51.850;-2.246;2024-03-29T10:15:36;8.98;;;2.53;;
40717;SDS011;26405;51.850;-2.246;2024-03-29T10:18:04;11.93;;;2.80;;
40717;SDS011;26405;51.850;-2.246;2024-03-29T10:20:29;12.73;;;2.50;;
40717;SDS011;26405;51.850;-2.246;2024-03-29T10:22:55;11.07;;;2.90;;
40717;SDS011;26405;51.850;-2.246;2024-03-29T10:25:21;18.30;;;2.97;;
40717;SDS011;26405;51.850;-2.246;2024-03-29T10:27:46;10.63;;;2.40;;
40717;SDS011;26405;51.850;-2.246;2024-03-29T10:30:11;10.23;;;2.50;;
40717;SDS011;26405;51.850;-2.246;2024-03-29T10:32:42;14.07;;;2.67;;
40717;SDS011;26405;51.850;-2.246;2024-03-29T10:35:08;13.35;;;2.28;;
40717;SDS011;26405;51.850;-2.246;2024-03-29T10:37:33;10.07;;;2.67;;
40717;SDS011;26405;51.850;-2.246;2024-03-29T10:40:04;10.73;;;2.38;;
40717;SDS011;26405;51.850;-2.246;2024-03-29T10:42:30;10.00;;;2.40;;
40717;SDS011;26405;51.850;-2.246;2024-03-29T10:44:58;6.82;;;2.28;;
40717;SDS011;26405;51.850;-2.246;2024-03-29T10:47:24;7.18;;;2.35;;
40717;SDS011;26405;51.850;-2.246;2024-03-29T10:49:50;9.45;;;2.45;;
40717;SDS011;26405;51.850;-2.246;2024-03-29T10:52:18;8.17;;;1.93;;
40717;SDS011;26405;51.850;-2.246;2024-03-29T10:54:44;7.22;;;2.08;;
40717;SDS011;26405;51.850;-2.246;2024-03-29T10:57:12;5.30;;;2.30;;
40717;SDS011;26405;51.850;-2.246;2024-03-29T10:59:51;4.30;;;1.85;;
40717;SDS011;26405;51.850;-2.246;2024-03-29T11:02:25;3.85;;;1.60;;
40717;SDS011;26405;51.850;-2.246;2024-03-29T11:04:53;2.83;;;1.35;;
40717;SDS011;26405;51.850;-2.246;2024-03-29T11:07:19;4.07;;;1.50;;
40717;SDS011;26405;51.850;-2.246;2024-03-29T11:09:47;3.45;;;1.55;;
40717;SDS011;26405;51.850;-2.246;2024-03-29T11:14:42;3.05;;;1.50;;
40717;SDS011;26405;51.850;-2.246;2024-03-29T11:17:10;3.15;;;1.60;;
40717;SDS011;26405;51.850;-2.246;2024-03-29T11:19:39;6.40;;;1.80;;
40717;SDS011;26405;51.850;-2.246;2024-03-29T11:22:04;5.03;;;1.80;;
40717;SDS011;26405;51.850;-2.246;2024-03-29T11:24:30;8.57;;;2.30;;
40717;SDS011;26405;51.850;-2.246;2024-03-29T11:26:56;9.63;;;2.00;;
40717;SDS011;26405;51.850;-2.246;2024-03-29T11:29:22;7.20;;;2.00;;
40717;SDS011;26405;51.850;-2.246;2024-03-29T11:31:48;6.93;;;2.13;;
40717;SDS011;26405;51.850;-2.246;2024-03-29T11:34:19;9.25;;;2.10;;
40717;SDS011;26405;51.850;-2.246;2024-03-29T11:36:45;10.90;;;2.65;;
40717;SDS011;26405;51.850;-2.246;2024-03-29T11:39:19;12.57;;;2.70;;
40717;SDS011;26405;51.850;-2.246;2024-03-29T11:41:47;9.68;;;2.55;;
40717;SDS011;26405;51.850;-2.246;2024-03-29T11:44:13;8.95;;;2.58;;
40717;SDS011;26405;51.850;-2.246;2024-03-29T11:46:39;12.55;;;3.50;;
40717;SDS011;26405;51.850;-2.246;2024-03-29T11:49:05;15.88;;;4.18;;
40717;SDS011;26405;51.850;-2.246;2024-03-29T11:51:30;11.50;;;3.60;;
40717;SDS011;26405;51.850;-2.246;2024-03-29T11:53:55;18.95;;;5.68;;
40717;SDS011;26405;51.850;-2.246;2024-03-29T11:56:21;13.75;;;4.68;;
40717;SDS011;26405;51.850;-2.246;2024-03-29T11:58:47;12.32;;;3.80;;
40717;SDS011;26405;51.850;-2.246;2024-03-29T12:01:16;10.00;;;3.38;;
40717;SDS011;26405;51.850;-2.246;2024-03-29T12:03:42;13.27;;;3.00;;
40717;SDS011;26405;51.850;-2.246;2024-03-29T12:06:07;14.70;;;4.57;;
40717;SDS011;26405;51.850;-2.246;2024-03-29T12:08:35;13.73;;;3.58;;
40717;SDS011;26405;51.850;-2.246;2024-03-29T12:11:01;11.05;;;3.22;;
40717;SDS011;26405;51.850;-2.246;2024-03-29T12:13:26;11.82;;;3.53;;
40717;SDS011;26405;51.850;-2.246;2024-03-29T12:15:52;8.15;;;2.90;;
40717;SDS011;26405;51.850;-2.246;2024-03-29T12:18:19;14.45;;;3.67;;
40717;SDS011;26405;51.850;-2.246;2024-03-29T12:20:44;15.93;;;3.35;;
40717;SDS011;26405;51.850;-2.246;2024-03-29T12:23:11;12.85;;;3.50;;
40717;SDS011;26405;51.850;-2.246;2024-03-29T12:25:38;14.30;;;3.60;;
40717;SDS011;26405;51.850;-2.246;2024-03-29T12:28:04;14.85;;;3.92;;
40717;SDS011;26405;51.850;-2.246;2024-03-29T12:30:29;16.25;;;4.93;;
40717;SDS011;26405;51.850;-2.246;2024-03-29T12:33:04;17.73;;;5.30;;
40717;SDS011;26405;51.850;-2.246;2024-03-29T12:35:31;15.52;;;3.80;;
40717;SDS011;26405;51.850;-2.246;2024-03-29T12:38:00;26.45;;;12.25;;
40717;SDS011;26405;51.850;-2.246;2024-03-29T12:40:26;15.73;;;4.05;;
40717;SDS011;26405;51.850;-2.246;2024-03-29T12:42:53;18.38;;;3.50;;
40717;SDS011;26405;51.850;-2.246;2024-03-29T12:45:18;11.25;;;3.25;;
40717;SDS011;26405;51.850;-2.246;2024-03-29T12:47:45;16.13;;;5.00;;
40717;SDS011;26405;51.850;-2.246;2024-03-29T12:50:12;58.80;;;47.35;;
40717;SDS011;26405;51.850;-2.246;2024-03-29T12:52:41;78.50;;;56.13;;
40717;SDS011;26405;51.850;-2.246;2024-03-29T12:55:07;75.15;;;63.38;;
40717;SDS011;26405;51.850;-2.246;2024-03-29T12:57:33;40.20;;;29.30;;
40717;SDS011;26405;51.850;-2.246;2024-03-29T12:59:59;34.27;;;21.03;;
40717;SDS011;26405;51.850;-2.246;2024-03-29T13:02:24;33.88;;;19.15;;
40717;SDS011;26405;51.850;-2.246;2024-03-29T13:04:50;20.63;;;7.53;;
40717;SDS011;26405;51.850;-2.246;2024-03-29T13:07:16;20.23;;;4.88;;
40717;SDS011;26405;51.850;-2.246;2024-03-29T13:09:41;15.98;;;4.18;;
40717;SDS011;26405;51.850;-2.246;2024-03-29T13:12:06;16.30;;;3.78;;
40717;SDS011;26405;51.850;-2.246;2024-03-29T13:14:32;13.63;;;3.60;;
40717;SDS011;26405;51.850;-2.246;2024-03-29T13:16:58;12.83;;;3.00;;
40717;SDS011;26405;51.850;-2.246;2024-03-29T13:19:24;14.98;;;2.92;;
40717;SDS011;26405;51.850;-2.246;2024-03-29T13:21:49;13.88;;;3.22;;
40717;SDS011;26405;51.850;-2.246;2024-03-29T13:24:14;17.63;;;3.38;;
40717;SDS011;26405;51.850;-2.246;2024-03-29T13:26:40;15.05;;;3.63;;
40717;SDS011;26405;51.850;-2.246;2024-03-29T13:29:05;16.23;;;3.25;;
40717;SDS011;26405;51.850;-2.246;2024-03-29T13:31:30;13.93;;;2.88;;
40717;SDS011;26405;51.850;-2.246;2024-03-29T13:33:56;13.67;;;3.27;;
40717;SDS011;26405;51.850;-2.246;2024-03-29T13:36:29;14.48;;;3.40;;
40717;SDS011;26405;51.850;-2.246;2024-03-29T13:38:54;16.40;;;3.00;;
40717;SDS011;26405;51.850;-2.246;2024-03-29T13:41:19;15.30;;;3.30;;
40717;SDS011;26405;51.850;-2.246;2024-03-29T13:43:45;19.23;;;3.35;;
40717;SDS011;26405;51.850;-2.246;2024-03-29T13:46:10;18.23;;;3.53;;
40717;SDS011;26405;51.850;-2.246;2024-03-29T13:48:36;17.73;;;4.10;;
40717;SDS011;26405;51.850;-2.246;2024-03-29T13:51:01;15.73;;;3.20;;
40717;SDS011;26405;51.850;-2.246;2024-03-29T13:53:26;15.52;;;3.65;;
40717;SDS011;26405;51.850;-2.246;2024-03-29T13:55:53;16.30;;;3.35;;
40717;SDS011;26405;51.850;-2.246;2024-03-29T13:58:19;17.25;;;3.63;;
40717;SDS011;26405;51.850;-2.246;2024-03-29T14:00:44;17.17;;;3.47;;
40717;SDS011;26405;51.850;-2.246;2024-03-29T14:03:09;15.35;;;3.17;;
40717;SDS011;26405;51.850;-2.246;2024-03-29T14:05:35;12.80;;;3.03;;
40717;SDS011;26405;51.850;-2.246;2024-03-29T14:08:01;15.90;;;3.13;;
40717;SDS011;26405;51.850;-2.246;2024-03-29T14:10:27;13.40;;;3.10;;
40717;SDS011;26405;51.850;-2.246;2024-03-29T14:12:52;15.57;;;2.95;;
40717;SDS011;26405;51.850;-2.246;2024-03-29T14:15:19;8.30;;;2.20;;
40717;SDS011;26405;51.850;-2.246;2024-03-29T14:17:44;3.15;;;1.58;;
40717;SDS011;26405;51.850;-2.246;2024-03-29T14:20:10;5.57;;;1.60;;
40717;SDS011;26405;51.850;-2.246;2024-03-29T14:22:35;5.70;;;1.77;;
40717;SDS011;26405;51.850;-2.246;2024-03-29T14:25:02;8.10;;;2.13;;
40717;SDS011;26405;51.850;-2.246;2024-03-29T14:27:28;8.05;;;1.90;;
40717;SDS011;26405;51.850;-2.246;2024-03-29T14:32:21;11.63;;;2.50;;